Time;durP1;ratioP1;P1;durP2;ratioP2;P2;SDS_P1;SDS_P2;PMS_P1;PMS_P2;Temp;Humidity;BMP_temperature;BMP_pressure;BME280_temperature;BME280_humidity;BME280_pressure;Samples;Min_cycle;Max_cycle;Signal;HPM_P1;HPM_P2
2022/12/17 13:06:45;;;;;;;22.02;12.35;;;2.50;76.00;;;;;;5042532;28;20052;-61
2022/12/17 13:09:36;;;;;;;19.58;14.15;;;2.40;75.90;;;;;;5048031;28;20111;-60
2022/12/17 13:12:01;;;;;;;30.80;15.50;;;2.40;76.00;;;;;;5046835;28;20484;-63
2022/12/17 13:14:33;;;;;;;23.85;14.30;;;2.30;76.10;;;;;;5039347;28;20036;-60
2022/12/17 13:17:05;;;;;;;23.45;12.70;;;2.30;76.10;;;;;;5043866;28;20373;-61
2022/12/17 13:19:44;;;;;;;24.67;13.07;;;2.30;76.20;;;;;;5043659;28;20045;-61
2022/12/17 13:22:13;;;;;;;24.35;12.48;;;2.30;76.20;;;;;;5045114;28;20102;-61
2022/12/17 13:24:40;;;;;;;20.58;12.88;;;2.20;76.20;;;;;;5042915;28;20119;-61
2022/12/17 13:27:27;;;;;;;23.67;12.75;;;2.20;76.30;;;;;;5032126;28;20045;-61
2022/12/17 13:29:52;;;;;;;23.58;12.90;;;2.30;76.20;;;;;;5047815;28;20074;-61
2022/12/17 13:32:27;;;;;;;23.20;13.55;;;2.30;76.30;;;;;;5043883;28;20156;-61
2022/12/17 13:35:15;;;;;;;23.92;14.95;;;2.30;76.30;;;;;;5038100;28;20372;-61
2022/12/17 13:38:08;;;;;;;24.75;14.93;;;2.30;76.20;;;;;;5046936;28;20402;-61
2022/12/17 13:41:02;;;;;;;26.92;13.57;;;2.30;76.10;;;;;;5040399;28;20025;-61
2022/12/17 13:43:32;;;;;;;27.70;14.70;;;2.40;76.20;;;;;;5041031;28;20028;-63
2022/12/17 13:45:58;;;;;;;23.00;13.13;;;2.30;76.20;;;;;;5046507;28;20033;-63
2022/12/17 13:48:26;;;;;;;24.13;14.43;;;2.30;76.20;;;;;;5041517;28;20034;-64
2022/12/17 13:51:04;;;;;;;23.58;14.95;;;2.30;76.10;;;;;;5040179;28;20037;-63
2022/12/17 13:53:34;;;;;;;22.00;12.32;;;2.30;76.10;;;;;;5044324;28;20558;-64
2022/12/17 13:56:00;;;;;;;20.00;14.95;;;2.20;76.30;;;;;;5045258;28;20032;-61
2022/12/17 13:58:33;;;;;;;22.00;14.00;;;2.30;76.30;;;;;;5044961;28;20057;-65
2022/12/17 14:01:10;;;;;;;22.23;13.27;;;2.30;76.20;;;;;;5035926;28;20032;-65
2022/12/17 14:03:37;;;;;;;21.95;12.68;;;2.30;76.10;;;;;;5041530;28;20028;-60
2022/12/17 14:06:09;;;;;;;17.25;11.80;;;2.30;76.20;;;;;;5046556;28;20025;-61
2022/12/17 14:08:35;;;;;;;19.00;12.27;;;2.30;76.20;;;;;;5045974;28;20562;-61
2022/12/17 14:13:49;;;;;;;20.50;12.95;;;2.30;76.20;;;;;;5041216;28;20032;-62
2022/12/17 14:16:19;;;;;;;26.80;14.68;;;2.20;76.20;;;;;;5048723;28;20508;-61
2022/12/17 14:18:50;;;;;;;27.92;14.43;;;2.20;76.20;;;;;;5047669;28;20043;-61
2022/12/17 14:21:16;;;;;;;18.48;12.68;;;2.20;76.20;;;;;;5045655;28;20032;-61
2022/12/17 14:23:43;;;;;;;24.55;14.40;;;2.10;76.30;;;;;;5047301;28;20399;-62
2022/12/17 14:26:11;;;;;;;22.83;12.35;;;2.10;76.40;;;;;;5042007;28;20025;-64
2022/12/17 14:28:44;;;;;;;21.35;12.65;;;2.20;76.50;;;;;;5048884;28;20029;-63
2022/12/17 14:31:13;;;;;;;26.25;14.73;;;2.30;76.40;;;;;;5035879;28;20164;-64
2022/12/17 14:33:39;;;;;;;21.77;14.30;;;2.30;76.20;;;;;;5038220;28;20091;-64
2022/12/17 14:36:17;;;;;;;26.52;13.63;;;2.20;76.00;;;;;;5048311;28;20025;-64
2022/12/17 14:39:28;;;;;;;19.30;15.38;;;2.10;76.10;;;;;;5043883;28;20036;-64
2022/12/17 14:42:24;;;;;;;21.42;14.00;;;2.10;76.20;;;;;;5046427;28;20104;-65
2022/12/17 14:44:56;;;;;;;23.83;13.82;;;1.90;76.30;;;;;;5047691;28;20510;-64
2022/12/17 14:47:31;;;;;;;22.15;11.23;;;2.00;76.70;;;;;;5052075;28;20036;-64
2022/12/17 14:50:28;;;;;;;26.98;14.27;;;2.00;76.60;;;;;;5047930;28;20128;-63
2022/12/17 14:52:55;;;;;;;24.17;14.45;;;1.90;76.60;;;;;;5039109;28;20045;-63
2022/12/17 14:55:29;;;;;;;24.95;12.65;;;1.80;76.80;;;;;;5044723;28;20017;-63
2022/12/17 14:58:08;;;;;;;18.17;13.15;;;1.80;76.90;;;;;;5067533;28;20039;-63
2022/12/17 15:00:41;;;;;;;22.52;12.50;;;1.90;76.70;;;;;;5045818;28;20052;-63
2022/12/17 15:03:16;;;;;;;17.52;12.63;;;1.90;76.80;;;;;;5049928;28;20078;-63
2022/12/17 15:05:42;;;;;;;19.33;12.07;;;1.90;76.80;;;;;;5046503;28;20364;-63
2022/12/17 15:08:10;;;;;;;19.55;12.25;;;1.90;76.70;;;;;;5050791;28;20029;-60
2022/12/17 15:10:36;;;;;;;24.17;14.32;;;1.90;76.70;;;;;;5046408;28;20032;-62
2022/12/17 15:13:01;;;;;;;20.73;12.70;;;1.90;76.70;;;;;;5031148;28;20024;-63
2022/12/17 15:15:27;;;;;;;23.23;13.15;;;1.90;76.70;;;;;;5040743;28;20040;-63
2022/12/17 15:17:53;;;;;;;22.17;12.55;;;1.90;76.60;;;;;;5043597;28;20041;-63
2022/12/17 15:20:20;;;;;;;20.65;12.45;;;1.90;76.60;;;;;;5044119;28;20539;-65
2022/12/17 15:22:46;;;;;;;27.25;14.13;;;1.80;76.60;;;;;;5041178;28;20086;-61
2022/12/17 15:25:14;;;;;;;21.40;12.48;;;1.80;76.60;;;;;;5039624;28;20047;-61
2022/12/17 15:27:39;;;;;;;18.60;11.30;;;1.80;76.70;;;;;;5048206;28;20067;-64
2022/12/17 15:30:06;;;;;;;17.17;12.13;;;1.80;76.80;;;;;;5042876;28;20053;-64
2022/12/17 15:32:33;;;;;;;20.38;12.18;;;1.80;76.60;;;;;;5034517;28;20598;-62
2022/12/17 15:34:58;;;;;;;22.88;12.65;;;1.70;76.70;;;;;;5033018;28;20034;-63
2022/12/17 15:37:24;;;;;;;26.50;11.88;;;1.70;76.70;;;;;;5044102;28;20044;-61
2022/12/17 15:39:50;;;;;;;20.00;13.10;;;1.70;76.80;;;;;;5033546;28;20076;-62
2022/12/17 15:45:00;;;;;;;17.45;11.73;;;1.60;77.00;;;;;;5033655;28;20043;-61
2022/12/17 15:47:25;;;;;;;19.00;10.77;;;1.50;77.00;;;;;;5030507;28;20571;-61
2022/12/17 15:49:51;;;;;;;25.67;10.82;;;1.50;77.10;;;;;;5034912;28;20038;-61
2022/12/17 15:52:17;;;;;;;19.63;11.88;;;1.60;77.10;;;;;;5034482;28;20033;-61
2022/12/17 15:54:43;;;;;;;17.45;11.80;;;1.60;76.90;;;;;;5035302;28;20104;-61
2022/12/17 15:57:09;;;;;;;15.45;10.15;;;1.60;76.90;;;;;;5039271;28;20116;-61
2022/12/17 15:59:35;;;;;;;12.43;9.40;;;1.60;76.90;;;;;;5038529;28;20540;-61
2022/12/17 16:02:10;;;;;;;19.80;10.13;;;1.70;76.90;;;;;;5037313;28;20124;-61
2022/12/17 16:04:37;;;;;;;21.30;11.98;;;1.70;76.70;;;;;;5039751;28;20470;-61
2022/12/17 16:07:04;;;;;;;21.48;11.80;;;1.60;76.70;;;;;;5040267;28;20040;-61
2022/12/17 16:09:29;;;;;;;20.98;12.38;;;1.60;76.70;;;;;;5042251;28;20403;-61
2022/12/17 16:11:56;;;;;;;17.77;10.35;;;1.50;76.70;;;;;;5042177;28;20028;-63
2022/12/17 16:14:23;;;;;;;17.80;11.95;;;1.50;76.90;;;;;;5039530;28;20029;-64
2022/12/17 16:16:49;;;;;;;18.25;12.20;;;1.50;76.80;;;;;;5040849;28;20029;-61
2022/12/17 16:19:15;;;;;;;21.80;12.18;;;1.40;76.90;;;;;;5030543;28;20029;-61
2022/12/17 16:21:41;;;;;;;21.30;12.48;;;1.40;77.10;;;;;;5043262;28;20029;-64
2022/12/17 16:24:07;;;;;;;21.65;11.80;;;1.30;77.10;;;;;;5043372;28;20088;-64
2022/12/17 16:26:33;;;;;;;20.40;10.57;;;1.30;77.10;;;;;;5038719;28;20071;-61
2022/12/17 16:28:59;;;;;;;18.30;11.48;;;1.30;77.10;;;;;;5040353;28;20389;-64
2022/12/17 16:31:24;;;;;;;17.77;10.80;;;1.30;77.00;;;;;;5054628;28;20056;-61
2022/12/17 16:33:50;;;;;;;22.95;11.45;;;1.30;77.10;;;;;;5049234;28;21010;-61
2022/12/17 16:36:18;;;;;;;12.05;8.05;;;1.30;77.10;;;;;;5041691;28;20037;-61
2022/12/17 16:38:48;;;;;;;17.42;12.02;;;1.40;77.10;;;;;;5036026;28;20025;-64
2022/12/17 16:41:15;;;;;;;15.85;9.00;;;1.40;76.90;;;;;;5037861;28;20040;-62
2022/12/17 16:43:41;;;;;;;15.50;9.30;;;1.50;76.90;;;;;;5043758;28;20028;-65
2022/12/17 16:46:25;;;;;;;20.58;10.93;;;1.50;76.80;;;;;;5046913;28;20040;-61
2022/12/17 16:48:51;;;;;;;18.10;8.00;;;1.50;76.70;;;;;;5043308;28;20758;-60
2022/12/17 16:51:18;;;;;;;19.98;11.10;;;1.50;76.80;;;;;;5042909;28;20071;-61
2022/12/17 16:53:44;;;;;;;19.20;11.18;;;1.50;76.70;;;;;;5047663;28;20021;-61
2022/12/17 16:56:24;;;;;;;24.88;12.13;;;1.40;76.70;;;;;;5044595;28;20029;-61
2022/12/17 16:58:51;;;;;;;20.85;11.23;;;1.40;76.80;;;;;;5045418;28;20032;-61
2022/12/17 17:01:24;;;;;;;21.63;11.45;;;1.40;76.80;;;;;;5037856;28;20033;-61
2022/12/17 17:03:49;;;;;;;21.05;11.10;;;1.40;76.80;;;;;;5047880;28;20388;-61
2022/12/17 17:06:17;;;;;;;19.58;10.15;;;1.40;76.80;;;;;;5050110;28;20032;-61
2022/12/17 17:08:43;;;;;;;18.95;9.90;;;1.40;76.80;;;;;;5053453;28;20037;-61
2022/12/17 17:11:10;;;;;;;15.90;10.02;;;1.40;76.90;;;;;;5037382;28;20024;-61
2022/12/17 17:13:36;;;;;;;13.77;10.13;;;1.40;76.80;;;;;;5044987;28;20040;-61
2022/12/17 17:16:02;;;;;;;18.73;10.27;;;1.40;76.80;;;;;;5038396;28;20078;-61
2022/12/17 17:18:28;;;;;;;20.02;10.35;;;1.40;76.70;;;;;;5038127;28;20033;-60
2022/12/17 17:20:54;;;;;;;13.55;8.48;;;1.40;76.80;;;;;;5045657;28;20495;-60
2022/12/17 17:23:20;;;;;;;17.33;9.77;;;1.40;76.70;;;;;;5040615;28;20495;-64
2022/12/17 17:25:46;;;;;;;19.33;11.23;;;1.30;76.70;;;;;;5046370;28;20057;-60
2022/12/17 17:28:11;;;;;;;18.42;10.52;;;1.30;76.80;;;;;;5044851;28;20114;-60
2022/12/17 17:30:37;;;;;;;14.98;10.00;;;1.20;77.00;;;;;;5044524;28;20091;-60
2022/12/17 17:33:03;;;;;;;26.92;11.70;;;1.20;77.10;;;;;;5050505;28;20490;-61
2022/12/17 17:35:28;;;;;;;11.80;9.05;;;1.10;77.00;;;;;;5039202;28;20021;-60
2022/12/17 17:37:54;;;;;;;18.45;11.70;;;1.10;77.10;;;;;;5042059;28;20105;-60
2022/12/17 17:40:20;;;;;;;17.85;10.02;;;1.10;77.20;;;;;;5045666;28;20037;-60
2022/12/17 17:42:45;;;;;;;15.02;11.43;;;1.10;77.20;;;;;;5049065;28;20137;-60
2022/12/17 17:45:11;;;;;;;19.13;10.60;;;1.10;77.20;;;;;;5044004;28;20043;-60
2022/12/17 17:47:37;;;;;;;13.80;9.75;;;1.10;77.20;;;;;;5018217;28;20048;-60
2022/12/17 17:50:02;;;;;;;16.58;10.23;;;1.10;77.20;;;;;;5041696;28;20550;-60
2022/12/17 17:52:28;;;;;;;16.35;9.77;;;1.00;77.20;;;;;;5051344;28;20484;-63
2022/12/17 17:54:54;;;;;;;20.92;9.75;;;0.90;77.90;;;;;;5026855;28;20037;-65
2022/12/17 17:57:19;;;;;;;13.52;9.60;;;0.90;77.30;;;;;;5041952;28;20108;-66
2022/12/17 17:59:45;;;;;;;16.17;8.93;;;0.90;77.40;;;;;;5042658;28;20162;-61
2022/12/17 18:02:11;;;;;;;17.60;9.27;;;0.90;77.50;;;;;;5040352;28;20043;-60
2022/12/17 18:04:36;;;;;;;16.67;9.68;;;0.90;77.30;;;;;;5039034;28;20033;-61
2022/12/17 18:07:02;;;;;;;19.13;11.27;;;0.90;77.30;;;;;;5044035;28;20111;-61
2022/12/17 18:09:28;;;;;;;18.55;9.73;;;0.90;77.20;;;;;;5036830;28;20030;-64
2022/12/17 18:11:53;;;;;;;19.17;10.70;;;0.80;77.20;;;;;;5039726;28;20051;-64
2022/12/17 18:14:19;;;;;;;15.18;8.98;;;0.80;77.50;;;;;;5037282;28;20079;-66
2022/12/17 18:16:46;;;;;;;19.23;9.07;;;0.70;77.50;;;;;;5046804;28;20403;-65
2022/12/17 18:19:18;;;;;;;14.10;9.30;;;0.70;77.50;;;;;;5036479;28;20078;-65
2022/12/17 18:21:44;;;;;;;14.40;8.93;;;0.80;77.50;;;;;;5039336;28;20434;-64
2022/12/17 18:24:13;;;;;;;19.08;10.05;;;0.80;77.40;;;;;;5040351;28;20083;-61
2022/12/17 18:26:41;;;;;;;17.42;10.48;;;0.80;77.60;;;;;;5040937;28;20448;-61
2022/12/17 18:29:19;;;;;;;15.23;8.85;;;0.70;77.50;;;;;;5040077;28;20125;-64
2022/12/17 18:31:45;;;;;;;16.35;8.52;;;0.70;77.40;;;;;;5035392;28;20021;-61
2022/12/17 18:34:13;;;;;;;16.27;9.23;;;0.70;77.50;;;;;;5038353;28;20047;-61
2022/12/17 18:36:41;;;;;;;15.52;8.80;;;0.60;77.60;;;;;;5040999;28;20029;-64
2022/12/17 18:39:12;;;;;;;14.18;8.93;;;0.50;77.80;;;;;;5040671;28;20037;-64
2022/12/17 18:44:23;;;;;;;15.98;10.57;;;0.60;77.80;;;;;;5038031;28;20450;-64
2022/12/17 18:46:49;;;;;;;14.88;8.10;;;0.60;77.80;;;;;;5042092;28;20041;-64
2022/12/17 18:49:16;;;;;;;14.95;8.90;;;0.60;77.80;;;;;;5038980;28;20033;-64
2022/12/17 18:51:44;;;;;;;17.98;8.98;;;0.60;77.70;;;;;;5046453;28;20033;-61
2022/12/17 18:54:15;;;;;;;19.20;9.45;;;0.70;77.60;;;;;;5041721;28;20057;-64
2022/12/17 18:56:42;;;;;;;12.68;7.85;;;0.70;77.50;;;;;;5038690;28;20379;-64
2022/12/17 18:59:11;;;;;;;19.55;9.55;;;0.70;77.50;;;;;;5040956;28;20025;-64
2022/12/17 19:01:36;;;;;;;17.85;10.02;;;0.80;77.40;;;;;;5037713;28;20029;-62
2022/12/17 19:04:08;;;;;;;16.17;9.32;;;0.70;77.20;;;;;;5039340;28;20567;-61
2022/12/17 19:06:37;;;;;;;15.35;9.75;;;0.70;77.50;;;;;;5037027;28;20116;-61
2022/12/17 19:09:06;;;;;;;16.35;8.68;;;0.60;77.50;;;;;;5035328;28;20040;-64
2022/12/17 19:11:33;;;;;;;16.30;8.82;;;0.60;77.70;;;;;;5043440;28;20024;-64
2022/12/17 19:13:59;;;;;;;15.48;8.80;;;0.60;77.70;;;;;;5047074;28;20087;-61
2022/12/17 19:16:26;;;;;;;19.75;10.27;;;0.50;77.80;;;;;;5040332;28;20075;-64
2022/12/17 19:18:55;;;;;;;18.65;10.85;;;0.50;78.00;;;;;;5043523;28;20052;-61
2022/12/17 19:21:21;;;;;;;16.73;9.55;;;0.50;78.10;;;;;;5037129;28;20558;-64
2022/12/17 19:23:47;;;;;;;13.40;8.95;;;0.40;78.00;;;;;;5041018;28;20051;-65
2022/12/17 19:26:19;;;;;;;12.85;7.88;;;0.40;78.00;;;;;;5044124;28;20037;-64
2022/12/17 19:28:48;;;;;;;11.93;9.05;;;0.40;78.10;;;;;;5041067;28;20582;-64
2022/12/17 19:31:14;;;;;;;12.65;8.30;;;0.50;78.10;;;;;;5041230;28;20379;-64
2022/12/17 19:33:40;;;;;;;16.73;10.48;;;0.50;78.00;;;;;;5049304;28;20411;-64
2022/12/17 19:36:12;;;;;;;17.25;8.88;;;0.50;77.90;;;;;;5041779;28;20025;-64
2022/12/17 19:38:38;;;;;;;13.32;8.15;;;0.50;77.80;;;;;;5038615;28;20425;-64
2022/12/17 19:41:10;;;;;;;22.33;11.63;;;0.50;77.80;;;;;;5044110;28;20048;-64
2022/12/17 19:43:36;;;;;;;17.23;9.68;;;0.40;77.90;;;;;;5040395;28;20037;-61
2022/12/17 19:46:07;;;;;;;12.65;8.75;;;0.40;78.00;;;;;;5042281;28;20466;-61
2022/12/17 19:48:34;;;;;;;17.98;8.73;;;0.40;78.00;;;;;;5070717;28;20039;-61
2022/12/17 19:51:02;;;;;;;14.63;9.73;;;0.40;77.90;;;;;;5047625;28;20532;-61
2022/12/17 19:53:28;;;;;;;14.70;9.30;;;0.40;77.90;;;;;;5042541;28;20064;-61
2022/12/17 19:55:56;;;;;;;15.13;8.05;;;0.40;77.80;;;;;;5048465;28;20045;-62
2022/12/17 19:58:23;;;;;;;11.13;8.38;;;0.30;77.90;;;;;;5036482;28;20030;-64
2022/12/17 20:00:50;;;;;;;12.60;8.60;;;0.30;78.10;;;;;;5050991;28;20036;-64
2022/12/17 20:03:17;;;;;;;16.50;9.02;;;0.30;78.10;;;;;;5050129;28;20033;-64
2022/12/17 20:05:44;;;;;;;15.98;10.30;;;0.30;78.00;;;;;;5050613;28;20072;-63
2022/12/17 20:08:10;;;;;;;15.45;8.35;;;0.30;78.00;;;;;;5045767;28;20491;-61
2022/12/17 20:10:36;;;;;;;14.73;8.40;;;0.30;77.90;;;;;;5038423;28;20116;-61
2022/12/17 20:13:02;;;;;;;14.45;9.00;;;0.30;77.90;;;;;;5044142;28;20014;-64
2022/12/17 20:15:29;;;;;;;16.17;10.35;;;0.20;77.90;;;;;;5041670;28;20025;-64
2022/12/17 20:17:55;;;;;;;15.05;8.82;;;0.20;78.10;;;;;;5045249;28;20061;-64
2022/12/17 20:20:21;;;;;;;12.45;7.45;;;0.20;78.10;;;;;;5040777;28;20064;-64
2022/12/17 20:22:46;;;;;;;14.57;8.85;;;0.20;78.10;;;;;;5046843;28;20041;-61
2022/12/17 20:25:12;;;;;;;16.25;9.38;;;0.20;78.00;;;;;;5047718;28;20129;-62
2022/12/17 20:27:38;;;;;;;11.02;8.30;;;0.20;78.10;;;;;;5043242;28;20040;-61
2022/12/17 20:30:04;;;;;;;16.20;9.65;;;0.20;78.10;;;;;;5046149;28;20029;-61
2022/12/17 20:32:33;;;;;;;16.50;8.80;;;0.20;78.10;;;;;;5043619;28;20033;-64
2022/12/17 20:34:59;;;;;;;19.27;8.05;;;0.20;78.10;;;;;;5043555;28;20377;-64
2022/12/17 20:37:24;;;;;;;16.65;8.25;;;0.30;78.10;;;;;;5039771;28;20112;-62
2022/12/17 20:39:50;;;;;;;15.20;9.40;;;0.30;77.90;;;;;;5045538;28;20451;-62
2022/12/17 20:42:16;;;;;;;15.70;8.30;;;0.30;77.80;;;;;;5048779;28;20032;-61
2022/12/17 20:44:42;;;;;;;14.23;8.27;;;0.30;77.90;;;;;;5042715;28;20400;-61
2022/12/17 20:47:09;;;;;;;17.15;8.85;;;0.30;77.80;;;;;;5041424;28;20495;-61
2022/12/17 20:49:34;;;;;;;14.40;8.80;;;0.20;77.80;;;;;;5041472;28;20021;-64
2022/12/17 20:52:00;;;;;;;21.17;10.48;;;0.20;77.90;;;;;;5042723;28;20048;-64
2022/12/17 20:54:26;;;;;;;16.95;9.68;;;0.10;78.00;;;;;;5043637;28;20034;-64
2022/12/17 20:56:52;;;;;;;14.23;8.50;;;0.10;78.10;;;;;;5042536;28;20056;-64
2022/12/17 20:59:18;;;;;;;16.27;10.68;;;0.10;78.10;;;;;;5041121;28;20137;-61
2022/12/17 21:01:46;;;;;;;17.13;8.95;;;0.10;78.10;;;;;;5044198;28;20433;-61
2022/12/17 21:04:13;;;;;;;22.40;10.45;;;0.10;78.10;;;;;;5041935;28;20039;-61
2022/12/17 21:06:46;;;;;;;23.73;11.27;;;0.10;78.10;;;;;;5053551;28;20030;-64
2022/12/17 21:09:14;;;;;;;19.67;11.98;;;0.10;78.20;;;;;;5036944;28;20025;-63
2022/12/17 21:11:41;;;;;;;14.55;10.63;;;0.00;78.20;;;;;;5038765;28;20666;-61
2022/12/17 21:14:09;;;;;;;16.15;10.45;;;0.00;78.30;;;;;;5045166;28;20040;-61
2022/12/17 21:16:36;;;;;;;14.95;8.43;;;0.00;78.80;;;;;;5045677;28;20666;-64
2022/12/17 21:19:03;;;;;;;14.95;8.93;;;0.10;78.30;;;;;;5049659;28;20036;-61
2022/12/17 21:21:31;;;;;;;19.55;10.23;;;0.10;78.20;;;;;;5042368;28;20467;-63
2022/12/17 21:23:58;;;;;;;17.10;10.00;;;0.10;78.20;;;;;;5049445;28;20029;-61
2022/12/17 21:26:32;;;;;;;15.73;9.80;;;0.10;78.10;;;;;;5042040;28;20033;-61
2022/12/17 21:28:59;;;;;;;18.50;11.73;;;0.10;78.10;;;;;;5047865;28;20029;-61
2022/12/17 21:31:27;;;;;;;17.42;10.32;;;0.10;78.00;;;;;;5042661;28;20163;-61
2022/12/17 21:33:56;;;;;;;23.30;11.32;;;0.20;78.10;;;;;;5044693;28;20055;-61
2022/12/17 21:36:22;;;;;;;14.85;11.25;;;0.20;77.90;;;;;;5040024;28;20043;-60
2022/12/17 21:38:49;;;;;;;18.88;10.43;;;0.10;77.90;;;;;;5047071;28;20033;-61
2022/12/17 21:41:18;;;;;;;13.75;9.80;;;0.00;78.10;;;;;;5040886;28;20484;-62
2022/12/17 21:43:43;;;;;;;19.25;10.02;;;0.00;78.30;;;;;;5052641;28;20025;-60
2022/12/17 21:46:10;;;;;;;20.85;9.90;;;0.00;78.20;;;;;;5047228;28;20045;-63
2022/12/17 21:48:38;;;;;;;21.52;11.18;;;0.10;78.20;;;;;;5054014;28;20037;-63
2022/12/17 21:51:05;;;;;;;14.95;9.40;;;0.10;78.10;;;;;;5038787;28;20045;-61
2022/12/17 21:53:32;;;;;;;15.45;9.77;;;0.10;78.00;;;;;;5047709;28;20020;-60
2022/12/17 21:56:07;;;;;;;12.55;8.77;;;0.10;78.00;;;;;;5045834;28;20017;-63
2022/12/17 21:58:33;;;;;;;22.00;9.20;;;0.10;77.90;;;;;;5050000;28;20024;-65
2022/12/17 22:01:19;;;;;;;16.17;9.88;;;0.10;78.00;;;;;;5053755;28;20036;-60
2022/12/17 22:03:45;;;;;;;20.88;10.75;;;0.10;78.00;;;;;;5050616;28;20424;-60
2022/12/17 22:06:13;;;;;;;17.58;10.02;;;0.10;78.10;;;;;;5037755;28;20025;-60
2022/12/17 22:08:39;;;;;;;13.30;8.73;;;0.10;78.00;;;;;;5035994;28;20298;-63
2022/12/17 22:11:17;;;;;;;17.55;9.43;;;0.10;77.80;;;;;;5033844;28;20098;-60
2022/12/17 22:14:05;;;;;;;14.27;8.70;;;0.10;77.70;;;;;;5038036;28;20183;-63
2022/12/17 22:16:41;;;;;;;19.58;10.10;;;0.00;78.30;;;;;;5040799;28;20033;-63
2022/12/17 22:19:09;;;;;;;11.90;8.10;;;0.00;77.80;;;;;;5028980;28;20021;-60
2022/12/17 22:21:37;;;;;;;20.02;10.63;;;-0.10;77.90;;;;;;5030875;28;20099;-61
2022/12/17 22:24:03;;;;;;;25.67;11.93;;;-0.10;77.90;;;;;;5043853;28;20063;-60
2022/12/17 22:26:29;;;;;;;17.60;10.80;;;-0.10;78.00;;;;;;5040382;28;20031;-61
2022/12/17 22:28:55;;;;;;;18.65;10.60;;;-0.10;78.00;;;;;;5031135;28;20128;-61
2022/12/17 22:34:06;;;;;;;19.52;10.07;;;-0.20;78.00;;;;;;5035873;28;20048;-61
2022/12/17 22:36:33;;;;;;;22.60;11.80;;;-0.20;78.10;;;;;;5039436;28;20034;-61
2022/12/17 22:39:00;;;;;;;16.98;10.30;;;-0.10;78.10;;;;;;5031116;28;20037;-64
2022/12/17 22:44:11;;;;;;;26.48;11.90;;;-0.10;77.90;;;;;;5043998;28;20392;-63
2022/12/17 22:46:36;;;;;;;20.63;10.80;;;-0.10;77.90;;;;;;5032519;28;20025;-63
2022/12/17 22:49:02;;;;;;;20.35;11.20;;;-0.10;77.90;;;;;;5039018;28;20033;-65
2022/12/17 22:51:28;;;;;;;23.70;11.00;;;-0.10;77.90;;;;;;5031688;28;20037;-63
2022/12/17 22:53:54;;;;;;;18.90;9.73;;;-0.10;77.80;;;;;;5033017;28;20021;-62
2022/12/17 22:56:20;;;;;;;23.50;10.77;;;-0.10;77.80;;;;;;5033685;28;20053;-62
2022/12/17 22:58:46;;;;;;;15.57;8.75;;;-0.10;77.70;;;;;;5033730;28;20518;-65
2022/12/17 23:01:12;;;;;;;15.50;9.32;;;-0.20;77.70;;;;;;5052935;28;20058;-65
2022/12/17 23:03:38;;;;;;;18.35;10.93;;;-0.20;77.80;;;;;;5051976;28;20055;-65
2022/12/17 23:06:09;;;;;;;17.83;11.15;;;-0.20;77.90;;;;;;5042423;28;20068;-65
2022/12/17 23:08:35;;;;;;;16.42;8.80;;;-0.20;77.90;;;;;;5045352;28;20672;-64
2022/12/17 23:11:22;;;;;;;23.48;10.48;;;-0.30;77.90;;;;;;5049966;28;20025;-62
2022/12/17 23:13:47;;;;;;;17.20;9.18;;;-0.30;77.90;;;;;;5047965;28;20042;-62
2022/12/17 23:16:14;;;;;;;20.75;11.25;;;-0.30;78.00;;;;;;5051098;28;20029;-62
2022/12/17 23:18:42;;;;;;;15.02;8.88;;;-0.40;78.00;;;;;;5048949;28;20033;-65
2022/12/17 23:21:10;;;;;;;17.98;8.98;;;-0.30;78.00;;;;;;5050397;28;20112;-62
2022/12/17 23:23:36;;;;;;;16.10;7.10;;;-0.40;77.90;;;;;;5041947;28;20423;-62
2022/12/17 23:26:11;;;;;;;18.92;9.10;;;-0.50;77.90;;;;;;5048253;28;20365;-65
2022/12/17 23:28:36;;;;;;;14.82;9.40;;;-0.40;77.90;;;;;;5059763;28;20490;-65
2022/12/17 23:31:21;;;;;;;17.00;9.88;;;-0.50;77.70;;;;;;5050101;28;20025;-65
2022/12/17 23:33:47;;;;;;;17.83;10.27;;;-0.50;77.90;;;;;;5055533;28;20086;-62
2022/12/17 23:36:15;;;;;;;18.75;9.27;;;-0.60;77.90;;;;;;5046930;28;20053;-62
2022/12/17 23:38:41;;;;;;;14.60;9.45;;;-0.60;77.90;;;;;;5052222;28;20069;-63
2022/12/17 23:41:10;;;;;;;15.50;9.15;;;-0.70;77.80;;;;;;5052785;28;20032;-62
2022/12/17 23:43:36;;;;;;;13.23;9.00;;;-0.70;77.70;;;;;;5049974;28;20027;-63
2022/12/17 23:46:02;;;;;;;17.58;8.98;;;-0.70;77.80;;;;;;5049442;28;20504;-62
2022/12/17 23:48:30;;;;;;;17.23;8.85;;;-0.80;77.80;;;;;;5049104;28;20082;-65
2022/12/17 23:50:57;;;;;;;11.68;7.55;;;-0.80;77.80;;;;;;5052460;28;20037;-65
2022/12/17 23:53:22;;;;;;;11.63;8.20;;;-0.80;77.80;;;;;;5050915;28;20024;-65
2022/12/17 23:55:48;;;;;;;18.83;8.98;;;-0.80;77.70;;;;;;5041207;28;20536;-62
2022/12/17 23:58:14;;;;;;;16.10;9.20;;;-0.90;77.60;;;;;;5046257;28;20071;-65
